sim
Sign-in with your pilot id or email,
or register
Callsign
Passwort

Schedule Details

Flight Number: EWG4064
Departure: Dortmund Airport (EDLW) at 05:50
Arrival: Munich Airport (EDDM) at 06:55
Route: Eurowings Passenger Schedule. Enter filed route here before submitting Pirep.

Weather Information
Getting current METAR information for EDLW 202120Z AUTO 00000KT 9999 // NCD 13/08 Q1018
Getting current METAR information for EDDM 202120Z VRB01KT CAVOK 11/10 Q1016 NOSIG

Schedule Frequency

Route Map